Terminal Aerodrome Forecast
Issued by NWS

Home | Current Version | Previous Version | Text Only | Print | Product List | Glossary On
Versions: 1 2 3 4 5 6 7 8 9 10 11 12 13 14 15 16 17 18 19 20 21 22 23 24 25 26 27 28 29 30
179
FTUS46 KPQR 240532
TAFONP
TAF
KONP 240532Z 2406/2506 09004KT P6SM FEW250
     FM241200 05004KT P6SM SCT250
     FM242100 32005KT 5SM HZ SCT008
     FM250300 VRB03KT 6SM BR SCT005=

USA.gov is the U.S. government's official web portal to all federal, state and local government web resources and services.